Fox Island, Washington
Current Conditions -  °F | °C
As of 10:53 AM on Friday 21 Nov 2014 (Local Time) from KTIW Reporting Station
Light Rain Light Rain  
Wind Chill: 11°   Ceiling: 3000
Heat Index: 11°   Visibility: 10mi
Dew Point:   Wind: 12mph
Humidity: 80%   Direction: 170°S
Pressure: 29.66"   Gusts: NA
Location:  47.25°N, 122.63°W
Report Text: KTIW 211853Z 17010KT 10SM -RA OVC030 11/08 A2966 RMK AO2 RAB1754 SLP044 P0003 T01110078
Loading
Personal Weather Stations






























Interactive Weather Map New forecast layout! Learn more

10-Day Weather Forecast

Advertisements
Track Severe Weather on mobile